Time;durP1;ratioP1;P1;durP2;ratioP2;P2;SDS_P1;SDS_P2;PMS_P1;PMS_P2;Temp;Humidity;BMP_temperature;BMP_pressure;BME280_temperature;BME280_humidity;BME280_pressure;Samples;Min_cycle;Max_cycle;Signal;HPM_P1;HPM_P2
2022/07/29 00:01:58;;;;;;;;;;;;;;;18.29;51.80;101598.84;5023646;28;19991;-61
2022/07/29 00:04:23;;;;;;;;;;;;;;;18.30;51.71;101595.13;5012428;28;19924;-61
2022/07/29 00:06:48;;;;;;;;;;;;;;;18.27;52.59;101590.97;5027339;28;19932;-61
2022/07/29 00:09:13;;;;;;;;;;;;;;;18.23;52.05;101595.09;5031437;28;19928;-61
2022/07/29 00:11:38;;;;;;;;;;;;;;;18.24;51.86;101593.22;5032682;28;19929;-61
2022/07/29 00:14:04;;;;;;;;;;;;;;;18.23;52.55;101591.56;5027646;28;20015;-61
2022/07/29 00:16:29;;;;;;;;;;;;;;;18.26;52.19;101586.63;5015099;28;20470;-61
2022/07/29 00:18:54;;;;;;;;;;;;;;;18.20;53.05;101586.59;5021806;28;19922;-61
2022/07/29 00:21:19;;;;;;;;;;;;;;;18.21;52.92;101578.34;5029688;28;19929;-61
2022/07/29 00:23:44;;;;;;;;;;;;;;;18.11;52.56;101591.28;5028964;28;20012;-61
2022/07/29 00:26:10;;;;;;;;;;;;;;;18.11;52.93;101585.91;5017357;28;20360;-61
2022/07/29 00:28:35;;;;;;;;;;;;;;;18.09;52.77;101583.41;5030130;28;19971;-61
2022/07/29 00:31:00;;;;;;;;;;;;;;;18.10;52.63;101589.59;5021342;28;19983;-61
2022/07/29 00:33:25;;;;;;;;;;;;;;;18.12;52.64;101582.19;5026859;28;19921;-61
2022/07/29 00:35:50;;;;;;;;;;;;;;;18.13;52.61;101592.75;5031228;28;19971;-61
2022/07/29 00:38:19;;;;;;;;;;;;;;;18.13;52.67;101597.28;5024864;28;19967;-61
2022/07/29 00:40:45;;;;;;;;;;;;;;;18.15;52.88;101604.13;5028217;28;19926;-61
2022/07/29 00:43:11;;;;;;;;;;;;;;;18.10;53.19;101606.53;5023119;28;19921;-61
2022/07/29 00:45:36;;;;;;;;;;;;;;;18.04;53.22;101609.97;5030575;28;19956;-61
2022/07/29 00:48:04;;;;;;;;;;;;;;;18.06;53.09;101621.38;5017371;28;19956;-60
2022/07/29 00:50:30;;;;;;;;;;;;;;;18.09;53.17;101625.50;5027274;28;20015;-61
2022/07/29 00:52:55;;;;;;;;;;;;;;;18.12;53.18;101636.69;5032275;28;20392;-61
2022/07/29 00:55:20;;;;;;;;;;;;;;;18.12;53.88;101625.97;5023933;28;19977;-61
2022/07/29 00:57:46;;;;;;;;;;;;;;;18.10;53.82;101633.38;5024446;28;19962;-61
2022/07/29 01:00:14;;;;;;;;;;;;;;;18.05;53.21;101611.63;5028860;28;20008;-61
2022/07/29 01:02:39;;;;;;;;;;;;;;;17.97;53.61;101598.34;5027202;28;19925;-61
2022/07/29 01:05:05;;;;;;;;;;;;;;;17.95;53.37;101597.72;5025977;28;19927;-61
2022/07/29 01:07:31;;;;;;;;;;;;;;;17.96;53.72;101604.75;5031008;28;20300;-61
2022/07/29 01:09:57;;;;;;;;;;;;;;;18.08;53.66;101576.41;5028231;28;19921;-61
2022/07/29 01:12:25;;;;;;;;;;;;;;;17.79;54.92;101556.72;5027851;28;19921;-61
2022/07/29 01:14:51;;;;;;;;;;;;;;;17.77;54.03;101558.75;5021734;28;19929;-61
2022/07/29 01:17:28;;;;;;;;;;;;;;;17.75;53.63;101555.41;5031257;28;19921;-61
2022/07/29 01:19:59;;;;;;;;;;;;;;;17.77;54.04;101553.41;5023211;28;19921;-61
2022/07/29 01:22:31;;;;;;;;;;;;;;;17.79;53.89;101548.66;5032690;28;19921;-61
2022/07/29 01:25:05;;;;;;;;;;;;;;;17.80;53.82;101544.13;5035116;28;19921;-61
2022/07/29 01:27:52;;;;;;;;;;;;;;;17.79;54.24;101529.03;5032114;28;19925;-61
2022/07/29 01:30:17;;;;;;;;;;;;;;;17.78;55.00;101522.03;4982742;28;19976;-61
2022/07/29 01:32:42;;;;;;;;;;;;;;;17.77;54.52;101510.47;5033291;28;19925;-61
2022/07/29 01:35:16;;;;;;;;;;;;;;;17.77;55.30;101507.78;5034162;28;19944;-61
2022/07/29 01:37:47;;;;;;;;;;;;;;;17.56;55.46;101512.13;5032934;28;19997;-61
2022/07/29 01:40:20;;;;;;;;;;;;;;;17.50;55.16;101499.50;5026144;28;20019;-61
2022/07/29 01:42:49;;;;;;;;;;;;;;;17.58;55.18;101504.72;5028487;28;19921;-61
2022/07/29 01:45:41;;;;;;;;;;;;;;;17.43;55.64;101503.97;5031774;28;20545;-61
2022/07/29 01:48:10;;;;;;;;;;;;;;;17.46;56.40;101496.38;5019204;28;20012;-61
2022/07/29 01:50:37;;;;;;;;;;;;;;;17.42;57.01;101499.63;5028635;28;19928;-61
2022/07/29 01:53:08;;;;;;;;;;;;;;;17.25;57.28;101494.50;5032186;28;20475;-61
2022/07/29 01:55:38;;;;;;;;;;;;;;;17.26;56.14;101506.88;5031987;28;20012;-61
2022/07/29 01:58:04;;;;;;;;;;;;;;;17.32;56.28;101519.53;5033133;28;19927;-61
2022/07/29 02:00:31;;;;;;;;;;;;;;;17.34;57.35;101517.50;5028554;28;19932;-61
2022/07/29 02:02:57;;;;;;;;;;;;;;;17.31;56.63;101508.97;5022561;28;20561;-61
2022/07/29 02:05:23;;;;;;;;;;;;;;;17.30;56.49;101516.22;5024121;28;19928;-61
2022/07/29 02:07:50;;;;;;;;;;;;;;;17.33;56.40;101510.47;5014790;28;20354;-61
2022/07/29 02:10:16;;;;;;;;;;;;;;;17.39;56.40;101508.03;5032595;28;20292;-61
2022/07/29 02:12:42;;;;;;;;;;;;;;;17.31;56.73;101496.44;5030138;28;19932;-61
2022/07/29 02:15:09;;;;;;;;;;;;;;;17.29;56.67;101497.63;5023524;28;19927;-61
2022/07/29 02:17:40;;;;;;;;;;;;;;;17.31;56.55;101496.44;5028382;28;20549;-61
2022/07/29 02:20:06;;;;;;;;;;;;;;;17.30;57.14;101499.28;5025579;28;20368;-61
2022/07/29 02:22:34;;;;;;;;;;;;;;;17.31;56.56;101498.25;5033096;28;19928;-61
2022/07/29 02:25:00;;;;;;;;;;;;;;;17.28;58.15;101502.19;5033981;28;20429;-61
2022/07/29 02:27:27;;;;;;;;;;;;;;;17.25;57.26;101497.19;5007130;28;20008;-61
2022/07/29 02:29:53;;;;;;;;;;;;;;;17.25;56.64;101494.50;5026584;28;19925;-61
2022/07/29 02:32:19;;;;;;;;;;;;;;;17.22;58.24;101492.19;5023728;28;19928;-61
2022/07/29 02:34:45;;;;;;;;;;;;;;;17.15;57.36;101491.28;5027039;28;19927;-61
2022/07/29 02:37:12;;;;;;;;;;;;;;;17.17;57.42;101500.00;5025704;28;20312;-61
2022/07/29 02:39:38;;;;;;;;;;;;;;;17.20;57.99;101500.44;5030280;28;20345;-61
2022/07/29 02:42:06;;;;;;;;;;;;;;;17.19;58.10;101495.25;5028262;28;20059;-61
2022/07/29 02:44:34;;;;;;;;;;;;;;;17.14;59.88;101495.00;5029536;28;19925;-61
2022/07/29 02:47:02;;;;;;;;;;;;;;;17.11;57.49;101492.72;5033678;28;19933;-61
2022/07/29 02:49:39;;;;;;;;;;;;;;;17.06;57.43;101478.03;5033772;28;20007;-61
2022/07/29 02:52:04;;;;;;;;;;;;;;;17.05;57.48;101479.06;5030020;28;20055;-61
2022/07/29 02:54:32;;;;;;;;;;;;;;;17.09;57.56;101490.22;5029065;28;20013;-61
2022/07/29 02:57:03;;;;;;;;;;;;;;;17.13;57.44;101496.03;5032494;28;19921;-61
2022/07/29 02:59:30;;;;;;;;;;;;;;;17.14;57.36;101503.03;5034290;28;20403;-61
2022/07/29 03:01:57;;;;;;;;;;;;;;;17.14;57.42;101497.69;5032168;28;19928;-60
2022/07/29 03:04:24;;;;;;;;;;;;;;;17.11;58.28;101506.13;5028632;28;19928;-60
2022/07/29 03:06:51;;;;;;;;;;;;;;;17.03;61.03;101499.81;5031167;28;20377;-60
2022/07/29 03:09:17;;;;;;;;;;;;;;;16.91;59.27;101498.63;5031256;28;19921;-61
2022/07/29 03:11:43;;;;;;;;;;;;;;;16.90;59.64;101510.34;5030416;28;20292;-61
2022/07/29 03:14:09;;;;;;;;;;;;;;;16.92;58.78;101505.63;5021944;28;19924;-60
2022/07/29 03:16:36;;;;;;;;;;;;;;;16.88;59.07;101512.41;5030882;28;19928;-61
2022/07/29 03:19:02;;;;;;;;;;;;;;;16.83;61.02;101509.44;5033424;28;19925;-61
2022/07/29 03:21:27;;;;;;;;;;;;;;;16.79;59.10;101504.44;5022644;28;19952;-61
2022/07/29 03:23:52;;;;;;;;;;;;;;;16.78;58.85;101507.34;5021107;28;20318;-61
2022/07/29 03:26:18;;;;;;;;;;;;;;;16.79;59.10;101501.78;5028946;28;20576;-60
2022/07/29 03:28:43;;;;;;;;;;;;;;;16.79;60.23;101491.06;5032600;28;19921;-61
2022/07/29 03:31:09;;;;;;;;;;;;;;;16.64;60.28;101488.41;5033792;28;19923;-61
2022/07/29 03:33:34;;;;;;;;;;;;;;;16.58;60.41;101491.00;5030285;28;20018;-61
2022/07/29 03:35:59;;;;;;;;;;;;;;;16.58;60.56;101496.38;5031685;28;19952;-61
2022/07/29 03:38:26;;;;;;;;;;;;;;;16.54;60.89;101494.03;5029971;28;20328;-61
2022/07/29 03:40:55;;;;;;;;;;;;;;;16.44;63.33;101496.19;5032500;28;20432;-61
2022/07/29 03:43:22;;;;;;;;;;;;;;;16.39;61.28;101498.59;5025944;28;20048;-61
2022/07/29 03:45:51;;;;;;;;;;;;;;;16.42;60.82;101502.75;5032274;28;19955;-61
2022/07/29 03:48:19;;;;;;;;;;;;;;;16.48;61.83;101502.81;5032177;28;19921;-61
2022/07/29 03:50:44;;;;;;;;;;;;;;;16.48;60.93;101497.47;5028350;28;19929;-61
2022/07/29 03:53:10;;;;;;;;;;;;;;;16.50;61.26;101506.16;5030663;28;19991;-61
2022/07/29 03:55:43;;;;;;;;;;;;;;;16.52;60.31;101493.41;5031578;28;19929;-60
2022/07/29 03:58:09;;;;;;;;;;;;;;;16.51;60.33;101497.09;5016110;28;19918;-61
2022/07/29 04:00:36;;;;;;;;;;;;;;;16.48;60.56;101497.47;5031253;28;19953;-61
2022/07/29 04:03:03;;;;;;;;;;;;;;;16.45;61.50;101484.47;5013820;28;20011;-61
2022/07/29 04:05:28;;;;;;;;;;;;;;;16.38;61.52;101504.94;5032168;28;19928;-61
2022/07/29 04:07:53;;;;;;;;;;;;;;;16.39;61.23;101498.59;5028287;28;19925;-61
2022/07/29 04:10:19;;;;;;;;;;;;;;;16.41;61.47;101496.53;5031970;28;20414;-61
2022/07/29 04:12:44;;;;;;;;;;;;;;;16.38;61.16;101488.91;5027408;28;19930;-61
2022/07/29 04:15:10;;;;;;;;;;;;;;;16.37;62.73;101487.22;5030014;28;19975;-61
2022/07/29 04:17:35;;;;;;;;;;;;;;;16.35;61.62;101481.22;5027689;28;19982;-61
2022/07/29 04:20:02;;;;;;;;;;;;;;;16.24;64.50;101480.66;5028691;28;20141;-61
2022/07/29 04:22:28;;;;;;;;;;;;;;;16.06;64.85;101482.84;5028313;28;20012;-61
2022/07/29 04:24:53;;;;;;;;;;;;;;;16.02;63.66;101478.91;5010207;28;19928;-61
2022/07/29 04:27:18;;;;;;;;;;;;;;;16.03;63.76;101477.88;5025696;28;19928;-61
2022/07/29 04:29:44;;;;;;;;;;;;;;;16.09;62.51;101485.19;5031346;28;19921;-61
2022/07/29 04:32:09;;;;;;;;;;;;;;;16.16;62.98;101487.94;5030312;28;20377;-60
2022/07/29 04:34:34;;;;;;;;;;;;;;;16.14;62.24;101482.78;5031062;28;19927;-61
2022/07/29 04:36:59;;;;;;;;;;;;;;;16.12;63.40;101484.78;5029901;28;20343;-61
2022/07/29 04:39:24;;;;;;;;;;;;;;;16.09;62.61;101491.34;5029098;28;20377;-61
2022/07/29 04:41:50;;;;;;;;;;;;;;;16.13;62.62;101505.19;5021690;28;19960;-61
2022/07/29 04:44:15;;;;;;;;;;;;;;;16.13;63.29;101500.66;5026406;28;20388;-61
2022/07/29 04:46:41;;;;;;;;;;;;;;;16.11;63.48;101507.22;5029833;28;19975;-61
2022/07/29 04:49:06;;;;;;;;;;;;;;;16.07;63.71;101504.06;5028020;28;19921;-61
2022/07/29 04:51:31;;;;;;;;;;;;;;;16.06;64.08;101522.97;5026137;28;19930;-61
2022/07/29 04:53:56;;;;;;;;;;;;;;;16.08;64.45;101529.00;5037016;28;20308;-61
2022/07/29 04:56:21;;;;;;;;;;;;;;;16.17;63.76;101533.25;5031060;28;20024;-61
2022/07/29 04:58:47;;;;;;;;;;;;;;;16.04;68.04;101522.34;5035016;28;20484;-61
2022/07/29 05:01:12;;;;;;;;;;;;;;;15.92;64.97;101530.78;5033205;28;19960;-60
2022/07/29 05:03:37;;;;;;;;;;;;;;;15.91;64.73;101538.94;5028825;28;19967;-60
2022/07/29 05:06:02;;;;;;;;;;;;;;;15.96;64.44;101550.81;5030108;28;19925;-61
2022/07/29 05:08:28;;;;;;;;;;;;;;;16.04;64.61;101541.06;5030154;28;19979;-61
2022/07/29 05:10:53;;;;;;;;;;;;;;;16.02;66.56;101540.41;5033594;28;19932;-61
2022/07/29 05:13:18;;;;;;;;;;;;;;;15.99;65.17;101547.78;5033353;28;19925;-58
2022/07/29 05:15:43;;;;;;;;;;;;;;;16.04;66.69;101554.44;5033178;28;20407;-62
2022/07/29 05:18:08;;;;;;;;;;;;;;;15.99;66.71;101547.78;5026530;28;19931;-59
2022/07/29 05:20:34;;;;;;;;;;;;;;;15.99;64.78;101546.97;5030207;28;20016;-59
2022/07/29 05:23:00;;;;;;;;;;;;;;;16.02;66.53;101549.25;5030449;28;19927;-58
2022/07/29 05:25:26;;;;;;;;;;;;;;;16.02;64.58;101548.44;5021685;28;19925;-58
2022/07/29 05:27:51;;;;;;;;;;;;;;;16.04;64.73;101554.44;5029407;28;19921;-57
2022/07/29 05:30:17;;;;;;;;;;;;;;;16.07;64.43;101559.41;5030112;28;19928;-62
2022/07/29 05:32:42;;;;;;;;;;;;;;;16.08;64.20;101556.56;5034545;28;19922;-58
2022/07/29 05:35:07;;;;;;;;;;;;;;;16.06;66.33;101552.41;5038056;28;19948;-60
2022/07/29 05:37:33;;;;;;;;;;;;;;;16.03;65.18;101553.59;5030911;28;19921;-62
2022/07/29 05:39:58;;;;;;;;;;;;;;;16.09;64.98;101546.72;5028892;28;19947;-60
2022/07/29 05:42:24;;;;;;;;;;;;;;;15.99;67.17;101547.78;5032697;28;20020;-61
2022/07/29 05:44:49;;;;;;;;;;;;;;;15.99;65.22;101545.09;5038100;28;19956;-59
2022/07/29 05:47:15;;;;;;;;;;;;;;;16.04;64.80;101554.44;5032156;28;19921;-59
2022/07/29 05:49:41;;;;;;;;;;;;;;;16.06;66.63;101549.72;5037303;28;19948;-62
2022/07/29 05:52:06;;;;;;;;;;;;;;;16.10;65.26;101559.06;5035925;28;19921;-60
2022/07/29 05:54:31;;;;;;;;;;;;;;;16.12;67.62;101555.19;5031326;28;19963;-61
2022/07/29 05:56:56;;;;;;;;;;;;;;;16.14;66.01;101549.69;5035585;28;19929;-61
2022/07/29 05:59:21;;;;;;;;;;;;;;;16.25;65.91;101546.53;5037228;28;19960;-61
2022/07/29 06:01:47;;;;;;;;;;;;;;;16.22;66.72;101546.06;5033653;28;20637;-61
2022/07/29 06:04:12;;;;;;;;;;;;;;;16.16;67.77;101544.13;5029959;28;19936;-59
2022/07/29 06:06:37;;;;;;;;;;;;;;;16.17;66.34;101553.84;5033707;28;19975;-59
2022/07/29 06:09:02;;;;;;;;;;;;;;;16.19;67.88;101549.94;5033658;28;19921;-59
2022/07/29 06:11:27;;;;;;;;;;;;;;;16.25;65.70;101557.25;5034379;28;19917;-60
2022/07/29 06:13:53;;;;;;;;;;;;;;;16.27;66.77;101544.53;5028084;28;19924;-59
2022/07/29 06:16:18;;;;;;;;;;;;;;;16.32;66.13;101548.50;5029940;28;20040;-59
2022/07/29 06:18:43;;;;;;;;;;;;;;;16.34;65.84;101551.81;5034266;28;19921;-58
2022/07/29 06:21:09;;;;;;;;;;;;;;;16.42;66.47;101561.63;5030767;28;20399;-59
2022/07/29 06:23:34;;;;;;;;;;;;;;;16.43;66.07;101558.75;5029817;28;19921;-58
2022/07/29 06:26:00;;;;;;;;;;;;;;;16.44;67.25;101555.06;5020767;28;19922;-59
2022/07/29 06:28:25;;;;;;;;;;;;;;;16.50;66.19;101554.34;5033121;28;20342;-58
2022/07/29 06:30:51;;;;;;;;;;;;;;;16.47;66.04;101548.53;5033309;28;19921;-58
2022/07/29 06:33:18;;;;;;;;;;;;;;;16.45;66.28;101551.38;5030992;28;19962;-58
2022/07/29 06:35:44;;;;;;;;;;;;;;;16.58;66.36;101548.03;5021051;28;19951;-59
2022/07/29 06:38:11;;;;;;;;;;;;;;;16.48;66.32;101556.34;5028005;28;19925;-59
2022/07/29 06:41:12;;;;;;;;;;;;;;;16.48;66.40;101564.38;5033077;28;20008;-59
2022/07/29 06:43:38;;;;;;;;;;;;;;;16.46;66.72;101563.75;5015455;28;19929;-58
2022/07/29 06:46:04;;;;;;;;;;;;;;;16.49;66.58;101555.34;5029028;28;20794;-59
2022/07/29 06:48:29;;;;;;;;;;;;;;;16.59;66.01;101556.91;5032143;28;19929;-59
2022/07/29 06:50:54;;;;;;;;;;;;;;;16.51;66.08;101556.00;5033075;28;19927;-59
2022/07/29 06:53:20;;;;;;;;;;;;;;;16.48;66.11;101567.06;5032657;28;20390;-59
2022/07/29 06:55:45;;;;;;;;;;;;;;;16.48;66.98;101572.41;5030136;28;19960;-59
2022/07/29 06:58:10;;;;;;;;;;;;;;;16.51;66.24;101566.72;5028640;28;20518;-59
2022/07/29 07:00:36;;;;;;;;;;;;;;;16.49;65.96;101574.06;5026362;28;19921;-59
2022/07/29 07:03:01;;;;;;;;;;;;;;;16.48;66.40;101575.09;5027833;28;20004;-61
2022/07/29 07:05:26;;;;;;;;;;;;;;;16.51;66.46;101571.22;5034782;28;19917;-61
2022/07/29 07:07:51;;;;;;;;;;;;;;;16.48;68.05;101577.75;5032884;28;20257;-61
2022/07/29 07:10:17;;;;;;;;;;;;;;;16.56;66.51;101579.53;5030759;28;19925;-61
2022/07/29 07:12:42;;;;;;;;;;;;;;;16.53;66.57;101574.56;5022167;28;19917;-61
2022/07/29 07:15:07;;;;;;;;;;;;;;;16.57;66.71;101580.38;5029923;28;19956;-61
2022/07/29 07:17:32;;;;;;;;;;;;;;;16.63;66.39;101579.66;5032218;28;19980;-61
2022/07/29 07:19:57;;;;;;;;;;;;;;;16.69;68.67;101581.59;5032557;28;19921;-61
2022/07/29 07:22:23;;;;;;;;;;;;;;;16.72;66.93;101578.53;5032421;28;19929;-61
2022/07/29 07:24:48;;;;;;;;;;;;;;;16.80;67.01;101586.47;5031766;28;19979;-61
2022/07/29 07:27:13;;;;;;;;;;;;;;;17.02;67.78;101583.91;5032859;28;20084;-61
2022/07/29 07:29:40;;;;;;;;;;;;;;;16.94;67.59;101587.47;5032821;28;19932;-61
2022/07/29 07:32:06;;;;;;;;;;;;;;;17.01;66.93;101592.09;5025471;28;19922;-61
2022/07/29 07:34:31;;;;;;;;;;;;;;;17.06;66.68;101579.00;5018750;28;19937;-61
2022/07/29 07:36:56;;;;;;;;;;;;;;;17.20;66.81;101580.00;5027743;28;19921;-61
2022/07/29 07:39:21;;;;;;;;;;;;;;;17.32;67.12;101572.31;5031601;28;19965;-62
2022/07/29 07:41:46;;;;;;;;;;;;;;;17.52;66.31;101577.06;5028470;28;20004;-61
2022/07/29 07:44:12;;;;;;;;;;;;;;;17.66;65.78;101578.03;5032528;28;19955;-61
2022/07/29 07:46:37;;;;;;;;;;;;;;;17.75;65.54;101576.88;5033209;28;19916;-61
2022/07/29 07:49:02;;;;;;;;;;;;;;;17.83;65.51;101582.13;5022970;28;19921;-62
2022/07/29 07:51:27;;;;;;;;;;;;;;;17.88;66.72;101579.69;5013574;28;20393;-61
2022/07/29 07:53:52;;;;;;;;;;;;;;;18.01;65.41;101588.91;5024688;28;19947;-62
2022/07/29 07:56:18;;;;;;;;;;;;;;;18.10;65.25;101585.06;5028827;28;19972;-62
2022/07/29 07:58:43;;;;;;;;;;;;;;;18.21;64.96;101588.25;5018457;28;20390;-61
2022/07/29 08:01:08;;;;;;;;;;;;;;;18.33;64.68;101589.38;5033354;28;19928;-62
2022/07/29 08:03:34;;;;;;;;;;;;;;;18.35;64.48;101590.00;5029584;28;20080;-62
2022/07/29 08:05:59;;;;;;;;;;;;;;;18.44;64.19;101579.97;5027693;28;19979;-61
2022/07/29 08:08:24;;;;;;;;;;;;;;;18.55;64.18;101583.94;5026071;28;19921;-62
2022/07/29 08:10:52;;;;;;;;;;;;;;;18.68;64.24;101586.72;5030639;28;19921;-61
2022/07/29 08:13:19;;;;;;;;;;;;;;;18.83;64.00;101588.47;5028661;28;19928;-62
2022/07/29 08:15:45;;;;;;;;;;;;;;;18.83;63.68;101593.84;5024800;28;19922;-62
2022/07/29 08:18:10;;;;;;;;;;;;;;;18.90;63.22;101597.38;5015934;28;19959;-62
2022/07/29 08:20:38;;;;;;;;;;;;;;;18.89;63.32;101593.03;5032801;28;20501;-62
2022/07/29 08:23:04;;;;;;;;;;;;;;;18.96;63.14;101593.91;5024748;28;19971;-62
2022/07/29 08:25:29;;;;;;;;;;;;;;;19.17;62.73;101602.09;5025289;28;19932;-62
2022/07/29 08:27:54;;;;;;;;;;;;;;;19.14;62.12;101595.25;5019533;28;19921;-61
2022/07/29 08:30:19;;;;;;;;;;;;;;;19.04;62.57;101594.81;5022703;28;19917;-62
2022/07/29 08:32:47;;;;;;;;;;;;;;;19.18;62.43;101601.88;5018383;28;19921;-62
2022/07/29 08:35:12;;;;;;;;;;;;;;;19.26;62.37;101608.13;5031738;28;20308;-62
2022/07/29 08:37:37;;;;;;;;;;;;;;;19.37;62.14;101602.16;5021857;28;19925;-62
2022/07/29 08:40:02;;;;;;;;;;;;;;;19.56;61.47;101607.81;5026844;28;19921;-62
2022/07/29 08:42:28;;;;;;;;;;;;;;;19.56;62.02;101602.41;5021346;28;20411;-62
2022/07/29 08:44:53;;;;;;;;;;;;;;;19.68;61.22;101611.56;5021295;28;19921;-62
2022/07/29 08:47:18;;;;;;;;;;;;;;;19.66;60.91;101607.41;5028225;28;20043;-62
2022/07/29 08:49:44;;;;;;;;;;;;;;;19.69;60.95;101607.00;5030278;28;19922;-61
2022/07/29 08:52:11;;;;;;;;;;;;;;;19.80;60.08;101602.88;5026786;28;20011;-61
2022/07/29 08:54:36;;;;;;;;;;;;;;;19.72;60.57;101607.44;5030939;28;19921;-61
2022/07/29 08:57:01;;;;;;;;;;;;;;;19.63;60.53;101608.63;5030215;28;20407;-61
2022/07/29 08:59:27;;;;;;;;;;;;;;;19.71;60.94;101605.78;5030656;28;19931;-61
2022/07/29 09:01:53;;;;;;;;;;;;;;;19.92;60.65;101605.81;5029257;28;19957;-61
2022/07/29 09:04:19;;;;;;;;;;;;;;;20.09;60.11;101600.88;5020874;28;20348;-61
2022/07/29 09:06:46;;;;;;;;;;;;;;;20.22;59.73;101603.56;5022383;28;19921;-61
2022/07/29 09:09:13;;;;;;;;;;;;;;;20.32;59.74;101600.44;5024936;28;19925;-61
2022/07/29 09:11:39;;;;;;;;;;;;;;;20.49;59.94;101600.03;5027260;28;19925;-61
2022/07/29 09:14:04;;;;;;;;;;;;;;;20.63;59.54;101600.84;5027647;28;19978;-62
2022/07/29 09:16:45;;;;;;;;;;;;;;;20.73;58.24;101595.84;5025464;28;19971;-62
2022/07/29 09:19:19;;;;;;;;;;;;;;;20.79;58.31;101600.38;5030360;28;19921;-62
2022/07/29 09:21:59;;;;;;;;;;;;;;;20.85;58.31;101603.28;5021990;28;19940;-62
2022/07/29 09:24:26;;;;;;;;;;;;;;;20.98;57.81;101597.88;5025452;28;19940;-62
2022/07/29 09:26:51;;;;;;;;;;;;;;;20.95;57.88;101611.75;5026089;28;19921;-62
2022/07/29 09:29:20;;;;;;;;;;;;;;;20.98;57.45;101608.66;5026066;28;19967;-61
2022/07/29 09:31:50;;;;;;;;;;;;;;;21.06;57.54;101608.41;5025444;28;19931;-61
2022/07/29 09:34:16;;;;;;;;;;;;;;;21.16;57.20;101605.25;5024960;28;20488;-62
2022/07/29 09:36:46;;;;;;;;;;;;;;;21.29;56.53;101604.38;5017565;28;19925;-62
2022/07/29 09:39:12;;;;;;;;;;;;;;;21.47;56.09;101616.31;5029533;28;19920;-61
2022/07/29 09:41:45;;;;;;;;;;;;;;;21.43;55.36;101615.09;5032867;28;19925;-62
2022/07/29 09:44:10;;;;;;;;;;;;;;;21.45;56.43;101613.00;5027461;28;19928;-62
2022/07/29 09:46:35;;;;;;;;;;;;;;;21.56;53.96;101608.81;5025317;28;19921;-61
2022/07/29 09:49:12;;;;;;;;;;;;;;;21.61;56.04;101607.09;5035541;28;20368;-62
2022/07/29 09:51:37;;;;;;;;;;;;;;;21.73;55.17;101607.28;5032520;28;20401;-62
2022/07/29 09:54:23;;;;;;;;;;;;;;;21.83;55.44;101603.25;5026019;28;19925;-63
2022/07/29 09:56:48;;;;;;;;;;;;;;;21.92;55.42;101609.22;5024812;28;19929;-62
2022/07/29 09:59:13;;;;;;;;;;;;;;;22.03;54.06;101603.94;5034884;28;20012;-62
2022/07/29 10:01:39;;;;;;;;;;;;;;;22.07;54.71;101607.03;5028446;28;19929;-62
2022/07/29 10:04:04;;;;;;;;;;;;;;;22.12;53.50;101601.78;5024177;28;19963;-62
2022/07/29 10:06:29;;;;;;;;;;;;;;;22.13;53.64;101603.44;5031634;28;19936;-62
2022/07/29 10:08:54;;;;;;;;;;;;;;;22.22;53.52;101595.88;5028205;28;20552;-62
2022/07/29 10:11:19;;;;;;;;;;;;;;;22.35;53.19;101604.91;5028184;28;19921;-62
2022/07/29 10:13:46;;;;;;;;;;;;;;;22.43;51.58;101597.34;5034924;28;19917;-62
2022/07/29 10:16:12;;;;;;;;;;;;;;;22.54;49.94;101592.28;5033864;28;19929;-62
2022/07/29 10:18:38;;;;;;;;;;;;;;;22.54;52.31;101592.28;5028800;28;19940;-62
2022/07/29 10:21:04;;;;;;;;;;;;;;;22.62;52.18;101600.09;5016231;28;20004;-62
2022/07/29 10:23:29;;;;;;;;;;;;;;;22.70;51.25;101594.41;5033971;28;20024;-62
2022/07/29 10:25:55;;;;;;;;;;;;;;;22.59;51.14;101597.84;5032013;28;19921;-62
2022/07/29 10:28:20;;;;;;;;;;;;;;;22.54;49.68;101601.22;5023890;28;19921;-62
2022/07/29 10:30:46;;;;;;;;;;;;;;;22.50;51.54;101601.88;5030856;28;19992;-62
2022/07/29 10:33:21;;;;;;;;;;;;;;;22.64;51.56;101598.00;5025188;28;19929;-62
2022/07/29 10:36:05;;;;;;;;;;;;;;;22.93;49.09;101603.72;5026523;28;19925;-62
2022/07/29 10:38:44;;;;;;;;;;;;;;;22.88;50.47;101597.34;5031015;28;19921;-62
2022/07/29 10:41:28;;;;;;;;;;;;;;;22.91;49.87;101597.72;5030153;28;19936;-62
2022/07/29 10:43:59;;;;;;;;;;;;;;;23.02;49.09;101593.41;5027831;28;19921;-62
2022/07/29 10:46:25;;;;;;;;;;;;;;;23.11;48.87;101596.63;5029904;28;19948;-62
2022/07/29 10:49:08;;;;;;;;;;;;;;;23.24;49.48;101591.03;5022663;28;19928;-62
2022/07/29 10:51:52;;;;;;;;;;;;;;;23.25;49.60;101589.19;5026539;28;20342;-62
2022/07/29 10:54:18;;;;;;;;;;;;;;;23.31;49.67;101580.19;5022855;28;19925;-62
2022/07/29 10:56:43;;;;;;;;;;;;;;;23.45;48.88;101580.81;5031986;28;19936;-62
2022/07/29 10:59:19;;;;;;;;;;;;;;;23.55;47.91;101584.84;5025358;28;19929;-61
2022/07/29 11:01:44;;;;;;;;;;;;;;;23.56;48.22;101586.47;5020823;28;19929;-62
2022/07/29 11:04:09;;;;;;;;;;;;;;;23.60;46.85;101590.38;5023166;28;19925;-62
2022/07/29 11:06:53;;;;;;;;;;;;;;;23.62;47.86;101585.56;5029418;28;20394;-59
2022/07/29 11:09:19;;;;;;;;;;;;;;;23.70;48.47;101579.00;5026880;28;19968;-59
2022/07/29 11:11:45;;;;;;;;;;;;;;;23.78;47.65;101584.91;5027129;28;19976;-59
2022/07/29 11:14:10;;;;;;;;;;;;;;;23.74;48.30;101583.69;5032301;28;19921;-58
2022/07/29 11:16:54;;;;;;;;;;;;;;;23.87;48.26;101587.25;5032845;28;19929;-59
2022/07/29 11:19:20;;;;;;;;;;;;;;;23.86;47.96;101588.31;5031599;28;19932;-62
2022/07/29 11:21:49;;;;;;;;;;;;;;;23.87;47.87;101577.25;5029358;28;19921;-61
2022/07/29 11:24:20;;;;;;;;;;;;;;;23.93;48.03;101586.34;5023209;28;19921;-62
2022/07/29 11:27:05;;;;;;;;;;;;;;;24.03;48.27;101581.16;4994684;28;20016;-60
2022/07/29 11:29:31;;;;;;;;;;;;;;;24.20;47.70;101585.06;4985172;28;19922;-63
2022/07/29 11:32:08;;;;;;;;;;;;;;;24.29;46.62;101584.50;4988623;28;19937;-59
2022/07/29 11:34:35;;;;;;;;;;;;;;;24.31;45.08;101582.38;4978956;28;19980;-59
2022/07/29 11:37:06;;;;;;;;;;;;;;;24.24;46.42;101581.69;4984211;28;20337;-59
2022/07/29 11:39:31;;;;;;;;;;;;;;;24.35;46.14;101576.47;4987632;28;19925;-59
2022/07/29 11:42:15;;;;;;;;;;;;;;;24.44;44.47;101577.78;4989011;28;19925;-59
2022/07/29 11:44:57;;;;;;;;;;;;;;;24.61;45.68;101574.34;4990911;28;19929;-59
2022/07/29 11:47:22;;;;;;;;;;;;;;;24.61;45.88;101574.34;4991512;28;20266;-59
2022/07/29 11:49:48;;;;;;;;;;;;;;;24.66;45.90;101583.41;4991510;28;20008;-59
2022/07/29 11:52:13;;;;;;;;;;;;;;;24.70;45.56;101571.03;4975919;28;20336;-59
2022/07/29 11:54:41;;;;;;;;;;;;;;;24.84;43.90;101568.91;4985014;28;19960;-59
2022/07/29 11:57:06;;;;;;;;;;;;;;;24.72;45.24;101592.47;4989514;28;19918;-59
2022/07/29 11:59:38;;;;;;;;;;;;;;;24.75;44.54;101586.56;4979689;28;19925;-59
2022/07/29 12:02:04;;;;;;;;;;;;;;;24.75;44.74;101585.72;4988944;28;19921;-59
2022/07/29 12:04:30;;;;;;;;;;;;;;;24.84;44.47;101581.63;4991349;28;19921;-60
2022/07/29 12:06:56;;;;;;;;;;;;;;;24.96;43.28;101577.00;4993798;28;19976;-59
2022/07/29 12:09:22;;;;;;;;;;;;;;;25.04;42.09;101578.50;4991798;28;20400;-59
2022/07/29 12:11:47;;;;;;;;;;;;;;;25.16;43.54;101580.34;4987809;28;19968;-59
2022/07/29 12:14:29;;;;;;;;;;;;;;;25.17;42.39;101576.56;4989733;28;20361;-59
2022/07/29 12:16:54;;;;;;;;;;;;;;;25.16;40.59;101581.16;4993526;28;19983;-59
2022/07/29 12:19:19;;;;;;;;;;;;;;;25.25;42.64;101578.88;4986858;28;20384;-58
2022/07/29 12:21:49;;;;;;;;;;;;;;;25.27;40.58;101584.91;4987701;28;19933;-57
2022/07/29 12:24:15;;;;;;;;;;;;;;;25.30;42.44;101576.25;4992704;28;19918;-57
2022/07/29 12:26:50;;;;;;;;;;;;;;;25.35;42.99;101584.50;5031670;28;19946;-57
2022/07/29 12:29:16;;;;;;;;;;;;;;;25.49;41.96;101582.31;5022513;28;20393;-57
2022/07/29 12:31:42;;;;;;;;;;;;;;;25.44;42.07;101581.38;5030533;28;20426;-58
2022/07/29 12:34:09;;;;;;;;;;;;;;;25.44;41.36;101578.66;5030918;28;19925;-57
2022/07/29 12:36:35;;;;;;;;;;;;;;;25.48;42.51;101587.97;5016580;28;19928;-57